Time;durP1;ratioP1;P1;durP2;ratioP2;P2;SDS_P1;SDS_P2;PMS_P1;PMS_P2;Temp;Humidity;BMP_temperature;BMP_pressure;BME280_temperature;BME280_humidity;BME280_pressure;Samples;Min_cycle;Max_cycle;Signal;HPM_P1;HPM_P2
2022/03/08 00:02:21;;;;;;;0.10;0.10;;;1.50;99.90;;;;;;4991895;28;20157;-80
2022/03/08 00:04:47;;;;;;;0.13;0.13;;;1.40;99.90;;;;;;4993858;28;20053;-80
2022/03/08 00:07:14;;;;;;;2.75;0.73;;;1.50;99.90;;;;;;5005016;28;20034;-80
2022/03/08 00:09:40;;;;;;;0.10;0.10;;;1.40;99.90;;;;;;5007751;28;20119;-80
2022/03/08 00:12:07;;;;;;;0.17;0.10;;;1.40;99.90;;;;;;4993999;28;20488;-80
2022/03/08 00:14:34;;;;;;;0.00;0.00;;;1.30;99.90;;;;;;4991976;28;20057;-80
2022/03/08 00:17:00;;;;;;;0.25;0.20;;;1.30;99.90;;;;;;5003081;28;20042;-80
2022/03/08 00:19:25;;;;;;;0.17;0.13;;;1.30;99.90;;;;;;5006215;28;20534;-80
2022/03/08 00:21:51;;;;;;;0.25;0.25;;;1.20;99.90;;;;;;4990461;28;20204;-80
2022/03/08 00:24:17;;;;;;;0.50;0.40;;;1.20;99.90;;;;;;5005025;28;20424;-80
2022/03/08 00:26:43;;;;;;;0.10;0.10;;;1.20;99.90;;;;;;4990726;28;20472;-80
2022/03/08 00:29:08;;;;;;;0.00;0.00;;;1.10;99.90;;;;;;4985616;28;20448;-80
2022/03/08 00:31:34;;;;;;;0.20;0.20;;;1.00;99.90;;;;;;4989882;28;20060;-80
2022/03/08 00:34:00;;;;;;;1.00;0.88;;;1.00;99.90;;;;;;5006699;28;20034;-80
2022/03/08 00:36:27;;;;;;;0.65;0.47;;;0.90;99.90;;;;;;4984702;28;20053;-80
2022/03/08 00:38:53;;;;;;;0.32;0.32;;;0.90;99.90;;;;;;4993485;28;20053;-80
2022/03/08 00:41:20;;;;;;;0.30;0.30;;;0.90;99.90;;;;;;4992552;28;20042;-80
2022/03/08 00:43:45;;;;;;;0.20;0.20;;;0.80;99.90;;;;;;4992718;28;20492;-80
2022/03/08 00:46:11;;;;;;;0.20;0.20;;;0.80;99.90;;;;;;4991910;28;20030;-80
2022/03/08 00:48:37;;;;;;;0.43;0.40;;;0.80;99.90;;;;;;4993370;28;20033;-80
2022/03/08 00:51:03;;;;;;;0.10;0.10;;;0.70;99.90;;;;;;4975512;28;20591;-80
2022/03/08 00:53:28;;;;;;;0.10;0.10;;;0.70;99.90;;;;;;4977475;28;20042;-80
2022/03/08 00:55:54;;;;;;;2.25;0.20;;;0.70;99.90;;;;;;4990826;28;20068;-80
2022/03/08 00:58:21;;;;;;;0.10;0.10;;;0.70;99.90;;;;;;4976732;28;20125;-80
2022/03/08 01:00:46;;;;;;;0.00;0.00;;;0.60;99.90;;;;;;4990510;28;20608;-80
2022/03/08 01:03:12;;;;;;;0.25;0.25;;;0.60;99.90;;;;;;4975964;28;20133;-80
2022/03/08 01:05:38;;;;;;;0.47;0.47;;;0.60;99.90;;;;;;4975049;28;20038;-80
2022/03/08 01:08:05;;;;;;;0.68;0.68;;;0.60;99.90;;;;;;4976528;28;20041;-80
2022/03/08 01:10:31;;;;;;;0.55;0.50;;;0.60;99.90;;;;;;4992994;28;20493;-80
2022/03/08 01:12:57;;;;;;;0.10;0.10;;;0.60;99.90;;;;;;4993102;28;20046;-80
2022/03/08 01:15:24;;;;;;;0.40;0.40;;;0.60;99.90;;;;;;4991971;28;20038;-80
2022/03/08 01:17:51;;;;;;;0.10;0.10;;;0.60;99.90;;;;;;4976255;28;20036;-80
2022/03/08 01:20:17;;;;;;;0.15;0.15;;;0.60;99.90;;;;;;4977179;28;20048;-80
2022/03/08 01:22:42;;;;;;;0.55;0.55;;;0.60;99.90;;;;;;4975852;28;20033;-80
2022/03/08 01:25:11;;;;;;;0.20;0.10;;;0.60;99.90;;;;;;4976294;28;20046;-80
2022/03/08 01:27:37;;;;;;;3.00;0.30;;;0.60;99.90;;;;;;4975276;28;20053;-80
2022/03/08 01:30:06;;;;;;;0.32;0.30;;;0.60;99.90;;;;;;4975939;28;20033;-80
2022/03/08 01:32:32;;;;;;;0.95;0.40;;;0.50;99.90;;;;;;4991748;28;20030;-80
2022/03/08 01:34:57;;;;;;;0.15;0.10;;;0.50;99.90;;;;;;5006494;28;20100;-80
2022/03/08 01:37:23;;;;;;;0.50;0.50;;;0.50;99.90;;;;;;4982714;28;20050;-79
2022/03/08 01:39:49;;;;;;;0.20;0.20;;;0.50;99.90;;;;;;4966541;28;20042;-80
2022/03/08 01:42:16;;;;;;;0.15;0.15;;;0.50;99.90;;;;;;4974217;28;20038;-80
2022/03/08 01:44:44;;;;;;;0.43;0.43;;;0.50;99.90;;;;;;4990909;28;20046;-80
2022/03/08 01:47:15;;;;;;;0.57;0.28;;;0.60;99.90;;;;;;4972299;28;20042;-79
2022/03/08 01:49:41;;;;;;;0.35;0.35;;;0.60;99.90;;;;;;4981041;28;20165;-79
2022/03/08 01:52:07;;;;;;;0.55;0.47;;;0.60;99.90;;;;;;4979102;28;20065;-79
2022/03/08 01:54:33;;;;;;;0.10;0.10;;;0.60;99.90;;;;;;4977401;28;20038;-79
2022/03/08 01:56:59;;;;;;;0.10;0.10;;;0.50;99.90;;;;;;5006576;28;20116;-79
2022/03/08 01:59:24;;;;;;;0.10;0.10;;;0.60;99.90;;;;;;4968239;28;20069;-79
2022/03/08 02:01:50;;;;;;;0.60;0.28;;;0.50;99.90;;;;;;4976794;28;20531;-79
2022/03/08 02:04:15;;;;;;;0.00;0.00;;;0.50;99.90;;;;;;4982815;28;20412;-79
2022/03/08 02:06:44;;;;;;;0.22;0.22;;;0.50;99.90;;;;;;4968621;28;20042;-79
2022/03/08 02:09:10;;;;;;;0.55;0.55;;;0.50;99.90;;;;;;4964531;28;20039;-79
2022/03/08 02:11:36;;;;;;;0.10;0.10;;;0.50;99.90;;;;;;4961838;28;20038;-79
2022/03/08 02:14:02;;;;;;;1.25;0.20;;;0.50;99.90;;;;;;5003926;28;20037;-79
2022/03/08 02:16:28;;;;;;;0.20;0.20;;;0.50;99.90;;;;;;4967611;28;20034;-79
2022/03/08 02:18:53;;;;;;;0.10;0.10;;;0.50;99.90;;;;;;5004170;28;20049;-79
2022/03/08 02:21:19;;;;;;;0.13;0.13;;;0.50;99.90;;;;;;4970510;28;20038;-79
2022/03/08 02:23:45;;;;;;;0.05;0.05;;;0.50;99.90;;;;;;4967661;28;20034;-79
2022/03/08 02:26:10;;;;;;;0.10;0.10;;;0.50;99.90;;;;;;4970646;28;20037;-79
2022/03/08 02:28:38;;;;;;;1.08;0.68;;;0.50;99.90;;;;;;4983051;28;20069;-79
2022/03/08 02:31:03;;;;;;;0.52;0.50;;;0.50;99.90;;;;;;4978076;28;20038;-79
2022/03/08 02:33:29;;;;;;;0.10;0.10;;;0.50;99.90;;;;;;4981142;28;20039;-79
2022/03/08 02:35:55;;;;;;;0.30;0.30;;;0.50;99.90;;;;;;4968359;28;20189;-79
2022/03/08 02:38:20;;;;;;;0.52;0.40;;;0.50;99.90;;;;;;5007460;28;20445;-79
2022/03/08 02:40:46;;;;;;;0.45;0.20;;;0.50;99.90;;;;;;4986193;28;20038;-79
2022/03/08 02:43:13;;;;;;;1.27;0.38;;;0.50;99.90;;;;;;4978482;28;20049;-79
2022/03/08 02:45:39;;;;;;;0.38;0.38;;;0.40;99.90;;;;;;4997080;28;20517;-79
2022/03/08 02:48:05;;;;;;;0.30;0.30;;;0.40;99.90;;;;;;5001065;28;20052;-79
2022/03/08 02:50:31;;;;;;;0.28;0.28;;;0.40;99.90;;;;;;4998551;28;20113;-79
2022/03/08 02:52:58;;;;;;;0.38;0.30;;;0.40;99.90;;;;;;5024075;28;20171;-79
2022/03/08 02:55:26;;;;;;;1.33;0.22;;;0.30;99.90;;;;;;4986132;28;20103;-79
2022/03/08 02:57:53;;;;;;;0.90;0.90;;;0.30;99.90;;;;;;5004262;28;20041;-79
2022/03/08 03:00:20;;;;;;;0.17;0.10;;;0.30;99.90;;;;;;4983373;28;20033;-78
2022/03/08 03:02:46;;;;;;;0.10;0.10;;;0.30;99.90;;;;;;4992895;28;20114;-78
2022/03/08 03:05:13;;;;;;;0.52;0.40;;;0.30;99.90;;;;;;5003838;28;20567;-78
2022/03/08 03:07:39;;;;;;;1.88;0.70;;;0.30;99.90;;;;;;4993011;28;20045;-78
2022/03/08 03:10:10;;;;;;;0.22;0.22;;;0.30;99.90;;;;;;4989016;28;20404;-78
2022/03/08 03:12:36;;;;;;;0.30;0.30;;;0.30;99.90;;;;;;4994837;28;20060;-78
2022/03/08 03:15:04;;;;;;;0.75;0.65;;;0.30;99.90;;;;;;5001395;28;20412;-78
2022/03/08 03:17:30;;;;;;;0.43;0.43;;;0.30;99.90;;;;;;4990139;28;20037;-78
2022/03/08 03:19:55;;;;;;;0.68;0.68;;;0.30;99.90;;;;;;4987559;28;20030;-78
2022/03/08 03:22:21;;;;;;;0.43;0.43;;;0.30;99.90;;;;;;4991095;28;20038;-78
2022/03/08 03:24:47;;;;;;;3.97;0.73;;;0.30;99.90;;;;;;5004625;28;20543;-78
2022/03/08 03:27:12;;;;;;;0.20;0.20;;;0.20;99.90;;;;;;4995679;28;20507;-78
2022/03/08 03:29:38;;;;;;;0.20;0.10;;;0.20;99.90;;;;;;4995485;28;20120;-78
2022/03/08 03:32:04;;;;;;;0.30;0.25;;;0.20;99.90;;;;;;5023487;28;20042;-78
2022/03/08 03:34:30;;;;;;;0.10;0.10;;;0.20;99.90;;;;;;5022698;28;20034;-78
2022/03/08 03:36:55;;;;;;;0.45;0.45;;;0.20;99.90;;;;;;5004506;28;20566;-78
2022/03/08 03:39:21;;;;;;;0.43;0.43;;;0.20;99.90;;;;;;5008734;28;20244;-78
2022/03/08 03:41:46;;;;;;;0.15;0.15;;;0.20;99.90;;;;;;4996397;28;20512;-78
2022/03/08 03:44:12;;;;;;;0.25;0.20;;;0.20;99.90;;;;;;5000171;28;20034;-78
2022/03/08 03:46:38;;;;;;;0.35;0.30;;;0.20;99.90;;;;;;5002943;28;20065;-78
2022/03/08 03:49:03;;;;;;;0.10;0.10;;;0.20;99.90;;;;;;5001599;28;20030;-78
2022/03/08 03:51:29;;;;;;;0.03;0.03;;;0.20;99.90;;;;;;4989843;28;20040;-78
2022/03/08 03:53:54;;;;;;;0.50;0.50;;;0.10;99.90;;;;;;5003356;28;20037;-78
2022/03/08 03:56:20;;;;;;;0.35;0.35;;;0.10;99.90;;;;;;5002335;28;20490;-78
2022/03/08 03:58:46;;;;;;;0.60;0.30;;;0.20;99.90;;;;;;5004822;28;20108;-78
2022/03/08 04:01:11;;;;;;;2.67;0.73;;;0.10;99.90;;;;;;4995617;28;20037;-78
2022/03/08 04:03:37;;;;;;;0.10;0.10;;;0.10;99.90;;;;;;5008775;28;20088;-78
2022/03/08 04:06:02;;;;;;;0.38;0.35;;;0.10;99.90;;;;;;4979872;28;20481;-78
2022/03/08 04:08:28;;;;;;;0.85;0.35;;;0.10;99.90;;;;;;4984359;28;20462;-78
2022/03/08 04:10:54;;;;;;;0.10;0.10;;;0.10;99.90;;;;;;4997866;28;20041;-78
2022/03/08 04:13:19;;;;;;;0.17;0.17;;;0.10;99.90;;;;;;4997510;28;20080;-78
2022/03/08 04:15:45;;;;;;;0.20;0.20;;;0.10;99.90;;;;;;5004339;28;20037;-78
2022/03/08 04:18:14;;;;;;;2.10;0.82;;;0.10;99.90;;;;;;5005583;28;20042;-78
2022/03/08 04:20:40;;;;;;;0.13;0.13;;;0.10;99.90;;;;;;5024279;28;20377;-78
2022/03/08 04:23:06;;;;;;;0.35;0.35;;;0.00;99.90;;;;;;5002402;28;20030;-78
2022/03/08 04:25:32;;;;;;;1.55;0.45;;;0.00;99.90;;;;;;5004634;28;20042;-78
2022/03/08 04:27:57;;;;;;;0.10;0.10;;;0.00;99.90;;;;;;4992195;28;20033;-78
2022/03/08 04:30:23;;;;;;;0.15;0.15;;;0.10;99.90;;;;;;4986117;28;20045;-78
2022/03/08 04:32:52;;;;;;;0.35;0.35;;;0.00;99.90;;;;;;4981811;28;20048;-78
2022/03/08 04:35:19;;;;;;;0.47;0.47;;;0.10;99.90;;;;;;4991178;28;20076;-78
2022/03/08 04:37:45;;;;;;;0.38;0.38;;;0.00;99.90;;;;;;4991153;28;20060;-77
2022/03/08 04:40:12;;;;;;;1.23;1.15;;;0.10;99.90;;;;;;4977274;28;20088;-77
2022/03/08 04:42:38;;;;;;;1.23;0.38;;;0.00;99.90;;;;;;5001066;28;20045;-77
2022/03/08 04:45:05;;;;;;;0.30;0.30;;;0.00;99.90;;;;;;4988790;28;20038;-77
2022/03/08 04:47:34;;;;;;;0.43;0.43;;;0.00;99.90;;;;;;4994564;28;20484;-77
2022/03/08 04:49:59;;;;;;;0.20;0.20;;;0.10;99.90;;;;;;4999817;28;20095;-77
2022/03/08 04:52:25;;;;;;;0.55;0.55;;;0.00;99.90;;;;;;4999712;28;20037;-77
2022/03/08 04:54:51;;;;;;;0.10;0.10;;;0.00;99.90;;;;;;4997557;28;20056;-78
2022/03/08 04:57:16;;;;;;;0.43;0.40;;;0.00;99.90;;;;;;4999568;28;20519;-78
2022/03/08 04:59:42;;;;;;;1.17;0.43;;;0.00;99.90;;;;;;4991976;28;20045;-78
2022/03/08 05:02:07;;;;;;;0.30;0.20;;;0.00;99.90;;;;;;5004317;28;20029;-78
2022/03/08 05:04:33;;;;;;;0.32;0.32;;;0.00;99.90;;;;;;4992283;28;20125;-78
2022/03/08 05:06:58;;;;;;;0.85;0.73;;;0.00;99.90;;;;;;5005625;28;20037;-78
2022/03/08 05:09:24;;;;;;;1.90;0.65;;;0.00;99.90;;;;;;4990968;28;20033;-78
2022/03/08 05:11:50;;;;;;;0.93;0.63;;;0.00;99.90;;;;;;4994236;28;20037;-78
2022/03/08 05:14:15;;;;;;;0.10;0.10;;;0.00;99.90;;;;;;5010998;28;20033;-78
2022/03/08 05:16:41;;;;;;;0.45;0.45;;;0.00;99.90;;;;;;4996551;28;20041;-78
2022/03/08 05:19:06;;;;;;;0.10;0.10;;;0.00;99.90;;;;;;4990354;28;20116;-78
2022/03/08 05:21:32;;;;;;;0.17;0.17;;;0.00;99.90;;;;;;4997809;28;20503;-78
2022/03/08 05:23:58;;;;;;;0.20;0.20;;;0.00;99.90;;;;;;4986274;28;20033;-78
2022/03/08 05:26:23;;;;;;;1.02;0.95;;;0.00;99.90;;;;;;5027451;28;20144;-78
2022/03/08 05:28:49;;;;;;;0.45;0.40;;;0.00;99.90;;;;;;4999614;28;20527;-78
2022/03/08 05:31:14;;;;;;;0.40;0.40;;;0.00;99.90;;;;;;5007843;28;20042;-78
2022/03/08 05:33:40;;;;;;;0.00;0.00;;;0.00;99.90;;;;;;5012236;28;20106;-78
2022/03/08 05:36:06;;;;;;;0.47;0.45;;;0.00;99.90;;;;;;5009993;28;20496;-78
2022/03/08 05:38:32;;;;;;;0.52;0.43;;;0.00;99.90;;;;;;4996386;28;20044;-78
2022/03/08 05:40:57;;;;;;;0.20;0.20;;;0.00;99.90;;;;;;4986101;28;20045;-78
2022/03/08 05:43:23;;;;;;;0.10;0.10;;;0.10;99.90;;;;;;5025597;28;20133;-78
2022/03/08 05:45:49;;;;;;;0.10;0.10;;;0.00;99.90;;;;;;5024894;28;20448;-78
2022/03/08 05:48:14;;;;;;;1.55;0.38;;;0.00;99.90;;;;;;5002161;28;20037;-78
2022/03/08 05:50:40;;;;;;;1.23;1.10;;;0.00;99.90;;;;;;4991506;28;20038;-78
2022/03/08 05:53:06;;;;;;;0.32;0.32;;;0.10;99.90;;;;;;5005232;28;20033;-78
2022/03/08 05:55:31;;;;;;;0.38;0.30;;;0.10;99.90;;;;;;5008001;28;20037;-78
2022/03/08 05:57:57;;;;;;;0.35;0.30;;;0.10;99.90;;;;;;4995231;28;20040;-78
2022/03/08 06:00:23;;;;;;;0.73;0.20;;;0.10;99.90;;;;;;4997832;28;20475;-78
2022/03/08 06:02:48;;;;;;;0.45;0.45;;;0.10;99.90;;;;;;4984720;28;20045;-78
2022/03/08 06:05:14;;;;;;;1.65;0.40;;;0.10;99.90;;;;;;4996588;28;20431;-77
2022/03/08 06:07:40;;;;;;;0.52;0.52;;;0.10;99.90;;;;;;5004354;28;20158;-77
2022/03/08 06:10:08;;;;;;;0.25;0.25;;;0.10;99.90;;;;;;5003995;28;20567;-77
2022/03/08 06:12:34;;;;;;;0.10;0.10;;;0.10;99.90;;;;;;5003245;28;20049;-81
2022/03/08 06:15:00;;;;;;;1.08;0.50;;;0.10;99.90;;;;;;4985905;28;20081;-77
2022/03/08 06:17:25;;;;;;;0.20;0.20;;;0.10;99.90;;;;;;4987766;28;20479;-77
2022/03/08 06:19:51;;;;;;;0.20;0.17;;;0.10;99.90;;;;;;4984245;28;20046;-77
2022/03/08 06:22:16;;;;;;;0.10;0.10;;;0.00;99.90;;;;;;4989664;28;21001;-77
2022/03/08 06:24:42;;;;;;;0.55;0.38;;;0.10;99.90;;;;;;5006723;28;20488;-78
2022/03/08 06:27:08;;;;;;;0.28;0.28;;;0.10;99.90;;;;;;5006515;28;20121;-77
2022/03/08 06:29:33;;;;;;;0.45;0.40;;;0.10;99.90;;;;;;4992313;28;20080;-77
2022/03/08 06:31:59;;;;;;;0.10;0.10;;;0.10;99.90;;;;;;5002599;28;20400;-78
2022/03/08 06:34:24;;;;;;;0.45;0.38;;;0.10;99.90;;;;;;5008100;28;20107;-78
2022/03/08 06:36:50;;;;;;;0.85;0.30;;;0.20;99.90;;;;;;5001551;28;20046;-78
2022/03/08 06:39:16;;;;;;;0.70;0.40;;;0.20;99.90;;;;;;4980170;28;20041;-78
2022/03/08 06:41:41;;;;;;;0.45;0.45;;;0.20;99.90;;;;;;4999373;28;20048;-78
2022/03/08 06:44:08;;;;;;;0.40;0.40;;;0.20;99.90;;;;;;5002845;28;20095;-78
2022/03/08 06:46:33;;;;;;;0.17;0.17;;;0.20;99.90;;;;;;5002500;28;20025;-78
2022/03/08 06:48:59;;;;;;;0.30;0.10;;;0.20;99.90;;;;;;4999583;28;20038;-79
2022/03/08 06:51:25;;;;;;;0.50;0.50;;;0.20;99.90;;;;;;5003710;28;20091;-78
2022/03/08 06:53:51;;;;;;;0.10;0.10;;;0.30;99.90;;;;;;4991710;28;20826;-79
2022/03/08 06:56:17;;;;;;;0.20;0.20;;;0.30;99.90;;;;;;5005644;28;20516;-78
2022/03/08 06:58:43;;;;;;;0.17;0.17;;;0.30;99.90;;;;;;5004500;28;20038;-78
2022/03/08 07:01:09;;;;;;;0.77;0.35;;;0.30;99.90;;;;;;5008957;28;20038;-78
2022/03/08 07:03:34;;;;;;;0.32;0.20;;;0.40;99.90;;;;;;4994306;28;20053;-79
2022/03/08 07:06:00;;;;;;;0.30;0.30;;;0.40;99.90;;;;;;4995271;28;20036;-79
2022/03/08 07:08:26;;;;;;;0.75;0.30;;;0.40;99.90;;;;;;4992924;28;20079;-80
2022/03/08 07:10:51;;;;;;;0.13;0.13;;;0.40;99.90;;;;;;5004652;28;20084;-79
2022/03/08 07:13:17;;;;;;;0.30;0.30;;;0.50;99.90;;;;;;4987620;28;20055;-79
2022/03/08 07:15:43;;;;;;;0.70;0.30;;;0.50;99.90;;;;;;4981280;28;20033;-79
2022/03/08 07:18:09;;;;;;;0.50;0.50;;;0.50;99.90;;;;;;5001279;28;20080;-79
2022/03/08 07:20:34;;;;;;;0.32;0.25;;;0.50;99.90;;;;;;4980851;28;20041;-79
2022/03/08 07:23:00;;;;;;;0.43;0.43;;;0.60;99.90;;;;;;4981750;28;20034;-79
2022/03/08 07:25:26;;;;;;;0.90;0.82;;;0.60;99.90;;;;;;4983871;28;20746;-78
2022/03/08 07:27:51;;;;;;;1.48;0.90;;;0.70;99.90;;;;;;4991122;28;20455;-80
2022/03/08 07:30:17;;;;;;;0.17;0.17;;;0.70;99.90;;;;;;5004202;28;20033;-79
2022/03/08 07:32:43;;;;;;;0.50;0.50;;;0.80;99.90;;;;;;5007070;28;20056;-78
2022/03/08 07:35:09;;;;;;;0.20;0.20;;;0.80;99.90;;;;;;5001629;28;20069;-78
2022/03/08 07:37:36;;;;;;;0.57;0.40;;;0.80;99.90;;;;;;5004888;28;20053;-78
2022/03/08 07:40:05;;;;;;;0.55;0.55;;;0.90;99.90;;;;;;5007358;28;20037;-82
2022/03/08 07:42:31;;;;;;;0.95;0.32;;;0.90;99.90;;;;;;4988701;28;20041;-77
2022/03/08 07:44:57;;;;;;;0.30;0.30;;;1.00;99.90;;;;;;5000105;28;20101;-77
2022/03/08 07:47:23;;;;;;;0.88;0.73;;;1.00;99.90;;;;;;4986630;28;20074;-77
2022/03/08 07:49:48;;;;;;;0.65;0.25;;;1.10;99.90;;;;;;5009030;28;20033;-77
2022/03/08 07:52:14;;;;;;;1.05;0.95;;;1.10;99.90;;;;;;5004913;28;20037;-78
2022/03/08 07:54:40;;;;;;;0.90;0.82;;;1.10;99.90;;;;;;5001636;28;20052;-77
2022/03/08 07:57:06;;;;;;;4.65;1.02;;;1.20;99.90;;;;;;4983207;28;20476;-77
2022/03/08 07:59:31;;;;;;;0.60;0.60;;;1.20;99.90;;;;;;4988309;28;20049;-77
2022/03/08 08:01:58;;;;;;;0.60;0.40;;;1.30;99.90;;;;;;5001379;28;20037;-77
2022/03/08 08:04:23;;;;;;;0.57;0.55;;;1.30;99.90;;;;;;4998109;28;20522;-77
2022/03/08 08:06:50;;;;;;;0.88;0.70;;;1.40;99.90;;;;;;5001071;28;20329;-77
2022/03/08 08:09:15;;;;;;;1.40;0.93;;;1.40;99.90;;;;;;4993740;28;20069;-78
2022/03/08 08:11:41;;;;;;;0.03;0.03;;;1.50;99.90;;;;;;4991131;28;20064;-77
2022/03/08 08:14:06;;;;;;;0.45;0.43;;;1.60;99.90;;;;;;5002916;28;20067;-77
2022/03/08 08:16:32;;;;;;;1.10;0.45;;;1.60;99.90;;;;;;5022718;28;20049;-78
2022/03/08 08:19:00;;;;;;;0.20;0.20;;;1.70;99.90;;;;;;5001804;28;20070;-78
2022/03/08 08:21:26;;;;;;;0.20;0.20;;;1.70;99.90;;;;;;5004343;28;20048;-78
2022/03/08 08:23:52;;;;;;;2.08;0.77;;;1.80;99.90;;;;;;5001877;28;20041;-81
2022/03/08 08:26:18;;;;;;;0.43;0.43;;;1.80;99.90;;;;;;5023133;28;20068;-77
2022/03/08 08:28:43;;;;;;;2.13;0.52;;;1.90;99.90;;;;;;5001366;28;20030;-77
2022/03/08 08:31:09;;;;;;;1.17;0.75;;;2.00;99.90;;;;;;5001301;28;20045;-77
2022/03/08 08:33:35;;;;;;;0.73;0.63;;;1.90;99.90;;;;;;5001241;28;20034;-77
2022/03/08 08:36:02;;;;;;;1.38;1.13;;;2.00;99.90;;;;;;5000486;28;20045;-77
2022/03/08 08:38:28;;;;;;;0.15;0.15;;;2.10;99.90;;;;;;4982048;28;20061;-77
2022/03/08 08:40:54;;;;;;;3.42;1.67;;;2.20;99.90;;;;;;4992977;28;20053;-77
2022/03/08 08:43:19;;;;;;;1.10;0.88;;;2.20;99.90;;;;;;5021137;28;20120;-76
2022/03/08 08:45:51;;;;;;;1.30;0.73;;;2.30;99.90;;;;;;5001285;28;20045;-77
2022/03/08 08:48:17;;;;;;;0.20;0.20;;;2.30;99.90;;;;;;5010173;28;20037;-76
2022/03/08 08:50:43;;;;;;;5.32;0.68;;;2.40;99.90;;;;;;5009253;28;20130;-76
2022/03/08 08:53:08;;;;;;;0.98;0.47;;;2.40;99.90;;;;;;4988718;28;20129;-76
2022/03/08 08:55:36;;;;;;;0.52;0.38;;;2.50;99.90;;;;;;5003784;28;20038;-81
2022/03/08 08:58:03;;;;;;;0.43;0.30;;;2.60;99.90;;;;;;5008291;28;20044;-74
2022/03/08 09:00:29;;;;;;;0.65;0.40;;;2.60;99.90;;;;;;4980610;28;20500;-75
2022/03/08 09:02:54;;;;;;;0.90;0.68;;;2.70;99.90;;;;;;5007605;28;20083;-74
2022/03/08 09:05:20;;;;;;;0.65;0.28;;;2.70;99.90;;;;;;4993948;28;20056;-75
2022/03/08 09:07:46;;;;;;;2.65;1.00;;;2.80;99.90;;;;;;5001784;28;20041;-75
2022/03/08 09:10:11;;;;;;;0.45;0.43;;;2.90;99.90;;;;;;5004268;28;20519;-75
2022/03/08 09:12:37;;;;;;;0.10;0.10;;;2.90;99.90;;;;;;4984433;28;20049;-75
2022/03/08 09:15:04;;;;;;;0.30;0.30;;;3.00;99.90;;;;;;4979530;28;20189;-75
2022/03/08 09:17:30;;;;;;;0.35;0.30;;;3.00;99.90;;;;;;4999481;28;20037;-75
2022/03/08 09:19:56;;;;;;;1.23;0.60;;;3.10;99.90;;;;;;5003689;28;20045;-75
2022/03/08 09:22:21;;;;;;;1.58;0.85;;;3.10;99.90;;;;;;5005386;28;20061;-75
2022/03/08 09:24:47;;;;;;;0.98;0.40;;;3.20;99.90;;;;;;4982679;28;20459;-75
2022/03/08 09:27:12;;;;;;;0.75;0.32;;;3.30;99.90;;;;;;5008109;28;20033;-75
2022/03/08 09:29:38;;;;;;;0.43;0.43;;;3.30;99.90;;;;;;4991642;28;20079;-75
2022/03/08 09:32:04;;;;;;;0.73;0.50;;;3.40;99.90;;;;;;5002604;28;20412;-75
2022/03/08 09:34:30;;;;;;;0.88;0.50;;;3.50;99.90;;;;;;5001642;28;20042;-75
2022/03/08 09:36:55;;;;;;;0.22;0.22;;;3.60;99.90;;;;;;5023383;28;20049;-75
2022/03/08 09:39:21;;;;;;;0.57;0.45;;;3.70;99.90;;;;;;5009802;28;20587;-75
2022/03/08 09:41:51;;;;;;;1.30;0.22;;;3.70;99.90;;;;;;4986682;28;20527;-74
2022/03/08 09:44:18;;;;;;;1.45;0.52;;;3.90;99.80;;;;;;5023645;28;20396;-74
2022/03/08 09:46:44;;;;;;;0.43;0.20;;;3.90;98.90;;;;;;5007950;28;20046;-74
2022/03/08 09:49:10;;;;;;;0.82;0.82;;;4.00;97.90;;;;;;4993543;28;20477;-75
2022/03/08 09:51:37;;;;;;;0.17;0.10;;;4.10;97.10;;;;;;4987736;28;20033;-74
2022/03/08 09:54:04;;;;;;;0.75;0.40;;;4.10;96.90;;;;;;5002254;28;20487;-81
2022/03/08 09:56:30;;;;;;;0.77;0.77;;;4.20;97.20;;;;;;5005213;28;20056;-75
2022/03/08 09:58:56;;;;;;;0.20;0.20;;;4.30;97.10;;;;;;5005599;28;20045;-74
2022/03/08 10:01:21;;;;;;;1.08;0.40;;;4.30;95.60;;;;;;5000871;28;20038;-74
2022/03/08 10:03:49;;;;;;;0.32;0.20;;;4.40;95.20;;;;;;4982094;28;20559;-75
2022/03/08 10:06:15;;;;;;;0.20;0.20;;;4.40;95.00;;;;;;4984230;28;20742;-75
2022/03/08 10:08:41;;;;;;;1.00;0.82;;;4.40;95.20;;;;;;5006097;28;20116;-75
2022/03/08 10:11:12;;;;;;;0.30;0.22;;;4.50;96.20;;;;;;4997517;28;20083;-75
2022/03/08 10:13:50;;;;;;;1.23;0.60;;;4.40;95.80;;;;;;4999157;28;20052;-75
2022/03/08 10:16:24;;;;;;;0.75;0.45;;;4.50;95.10;;;;;;4989060;28;20132;-75
2022/03/08 10:18:53;;;;;;;0.45;0.45;;;4.60;94.60;;;;;;5005823;28;20079;-75
2022/03/08 10:21:45;;;;;;;0.57;0.30;;;4.60;94.60;;;;;;4999518;28;20041;-75
2022/03/08 10:24:20;;;;;;;0.57;0.25;;;4.70;93.20;;;;;;4991662;28;20621;-75
2022/03/08 10:26:50;;;;;;;;;;;4.70;93.80;;;;;;5000557;28;20065;-75
2022/03/08 10:29:29;;;;;;;0.32;0.30;;;4.80;92.80;;;;;;5000096;28;20003;-75
2022/03/08 10:32:16;;;;;;;0.10;0.10;;;4.80;92.70;;;;;;4990385;28;20042;-74
2022/03/08 10:34:43;;;;;;;0.17;0.10;;;4.90;93.00;;;;;;5002219;28;20038;-74
2022/03/08 10:37:14;;;;;;;0.40;0.40;;;4.90;93.00;;;;;;4986174;28;20049;-74
2022/03/08 10:40:10;;;;;;;0.60;0.57;;;4.90;93.70;;;;;;4987277;28;20459;-75
2022/03/08 10:42:38;;;;;;;0.45;0.22;;;5.00;91.60;;;;;;4995398;28;20061;-76
2022/03/08 10:45:08;;;;;;;1.73;0.52;;;5.10;92.20;;;;;;5004581;28;20083;-75
2022/03/08 10:47:41;;;;;;;0.32;0.32;;;5.10;93.50;;;;;;4996888;28;20128;-74
2022/03/08 10:50:07;;;;;;;0.10;0.10;;;5.10;93.70;;;;;;5003136;28;21938;-75
2022/03/08 10:52:35;;;;;;;0.45;0.22;;;5.20;93.20;;;;;;5004161;28;20026;-74
2022/03/08 10:55:09;;;;;;;0.57;0.35;;;5.20;90.80;;;;;;4997794;28;20045;-74
2022/03/08 10:57:36;;;;;;;0.20;0.20;;;5.30;92.10;;;;;;5007169;28;20041;-75
2022/03/08 11:00:09;;;;;;;0.28;0.20;;;5.30;90.50;;;;;;4989741;28;20056;-75
2022/03/08 11:02:35;;;;;;;0.55;0.40;;;5.30;90.50;;;;;;4999152;28;20052;-76
2022/03/08 11:05:10;;;;;;;0.35;0.22;;;5.40;90.00;;;;;;4986415;28;20416;-76
2022/03/08 11:07:37;;;;;;;0.10;0.10;;;5.40;85.90;;;;;;5005402;28;20088;-76
2022/03/08 11:10:04;;;;;;;0.43;0.40;;;5.50;90.10;;;;;;5018799;28;20133;-81
2022/03/08 11:12:30;;;;;;;0.38;0.35;;;5.50;90.00;;;;;;4985876;28;20444;-75
2022/03/08 11:14:56;;;;;;;1.02;0.65;;;5.60;91.40;;;;;;5000509;28;20041;-74
2022/03/08 11:17:23;;;;;;;1.45;0.95;;;5.60;91.70;;;;;;5005623;28;20045;-76
2022/03/08 11:19:50;;;;;;;0.30;0.30;;;5.60;89.40;;;;;;4985782;28;20037;-74
2022/03/08 11:22:18;;;;;;;0.70;0.50;;;5.70;88.20;;;;;;4989033;28;20140;-75
2022/03/08 11:24:47;;;;;;;0.38;0.20;;;5.80;90.50;;;;;;5008288;28;20048;-75
2022/03/08 11:27:15;;;;;;;0.10;0.10;;;5.80;90.10;;;;;;5004312;28;20096;-75
2022/03/08 11:29:41;;;;;;;1.45;0.28;;;5.90;87.30;;;;;;4998272;28;20033;-75
2022/03/08 11:32:17;;;;;;;0.52;0.50;;;5.90;88.50;;;;;;4991400;28;20061;-75
2022/03/08 11:34:55;;;;;;;0.50;0.30;;;6.00;87.80;;;;;;4996335;28;20088;-75
2022/03/08 11:37:23;;;;;;;0.45;0.40;;;6.00;86.80;;;;;;4999778;28;20057;-75
2022/03/08 11:40:07;;;;;;;0.38;0.10;;;6.00;87.60;;;;;;5001263;28;20041;-76
2022/03/08 11:42:34;;;;;;;0.90;0.50;;;6.10;84.40;;;;;;4998329;28;20045;-75
2022/03/08 11:45:04;;;;;;;2.15;0.55;;;6.10;86.50;;;;;;5006841;28;20171;-75
2022/03/08 11:47:37;;;;;;;0.98;0.75;;;6.10;88.70;;;;;;4989716;28;20041;-75
2022/03/08 11:50:03;;;;;;;0.25;0.22;;;6.10;85.80;;;;;;5003562;28;20037;-75
2022/03/08 11:52:35;;;;;;;0.90;0.35;;;6.20;86.60;;;;;;5025201;28;20865;-75
2022/03/08 11:55:09;;;;;;;0.10;0.10;;;6.10;87.60;;;;;;5006032;28;20045;-75
2022/03/08 11:57:47;;;;;;;0.22;0.20;;;6.20;89.70;;;;;;5004727;28;20045;-75
2022/03/08 12:00:32;;;;;;;0.32;0.15;;;6.20;87.70;;;;;;4999199;28;20088;-75
2022/03/08 12:03:00;;;;;;;0.08;0.08;;;6.30;85.20;;;;;;4981938;28;20048;-76
2022/03/08 12:05:46;;;;;;;0.20;0.20;;;6.30;85.60;;;;;;4990599;28;20043;-75
2022/03/08 12:08:30;;;;;;;0.38;0.35;;;6.40;84.40;;;;;;5007353;28;20041;-75
2022/03/08 12:11:13;;;;;;;0.30;0.30;;;6.40;86.60;;;;;;5003618;28;20488;-75
2022/03/08 12:13:45;;;;;;;0.52;0.38;;;6.50;85.30;;;;;;4999600;28;20033;-79
2022/03/08 12:16:12;;;;;;;1.02;0.30;;;6.50;81.90;;;;;;5001560;28;20508;-79
2022/03/08 12:18:51;;;;;;;0.17;0.17;;;6.50;85.70;;;;;;4982785;28;20037;-78
2022/03/08 12:21:16;;;;;;;0.90;0.40;;;6.50;81.60;;;;;;5001836;28;20045;-74
2022/03/08 12:24:00;;;;;;;1.08;0.50;;;6.60;84.60;;;;;;5011367;28;20049;-76
2022/03/08 12:26:31;;;;;;;0.73;0.43;;;6.60;85.80;;;;;;5010359;28;20044;-75
2022/03/08 12:29:20;;;;;;;1.90;0.47;;;6.70;87.40;;;;;;4996453;28;20181;-75
2022/03/08 12:31:58;;;;;;;0.88;0.50;;;6.70;81.50;;;;;;4995784;28;20443;-75
2022/03/08 12:34:35;;;;;;;1.05;0.32;;;6.70;82.10;;;;;;4998501;28;20040;-74
2022/03/08 12:37:16;;;;;;;1.10;0.35;;;6.80;81.00;;;;;;4989896;28;20050;-75
2022/03/08 12:39:59;;;;;;;0.80;0.30;;;6.80;80.40;;;;;;5006568;28;20049;-74
2022/03/08 12:42:30;;;;;;;0.65;0.30;;;6.80;84.90;;;;;;4990359;28;20049;-75
2022/03/08 12:45:06;;;;;;;0.22;0.20;;;6.80;86.50;;;;;;4990949;28;20632;-75
2022/03/08 12:47:45;;;;;;;0.10;0.10;;;6.80;84.60;;;;;;4995229;28;20192;-74
2022/03/08 12:50:16;;;;;;;0.15;0.15;;;6.80;82.40;;;;;;4993417;28;20204;-75
2022/03/08 12:52:50;;;;;;;0.63;0.40;;;6.80;81.50;;;;;;5011018;28;20038;-74
2022/03/08 12:55:18;;;;;;;1.60;0.63;;;6.90;85.50;;;;;;5008775;28;20060;-75
2022/03/08 12:57:52;;;;;;;0.45;0.30;;;6.90;83.40;;;;;;4993827;28;20096;-75
2022/03/08 13:00:39;;;;;;;0.20;0.10;;;7.00;82.10;;;;;;5004377;28;20038;-74